createdAt,value
2022-09-27T00:01:42.300Z,96398.47
2022-09-27T00:04:12.247Z,96394.28
2022-09-27T00:06:41.139Z,96401.53
2022-09-27T00:09:10.030Z,96407.50
2022-09-27T00:11:40.147Z,96396.06
2022-09-27T00:14:09.035Z,96397.28
2022-09-27T00:16:38.288Z,96409.31
2022-09-27T00:19:09.187Z,96397.84
2022-09-27T00:21:37.500Z,96379.91
2022-09-27T00:24:05.989Z,96387.31
2022-09-27T00:26:34.429Z,96405.50
2022-09-27T00:29:02.909Z,96395.66
2022-09-27T00:31:31.391Z,96388.19
2022-09-27T00:34:01.312Z,96400.09
2022-09-27T00:36:30.067Z,96399.88
2022-09-27T00:39:00.207Z,96385.16
2022-09-27T00:41:33.569Z,96396.16
2022-09-27T00:44:06.544Z,96386.53
2022-09-27T00:46:34.879Z,96404.19
2022-09-27T00:49:18.251Z,96413.88
2022-09-27T00:51:48.568Z,96413.28
2022-09-27T00:54:17.749Z,96413.97
2022-09-27T00:56:46.063Z,96415.81
2022-09-27T00:59:20.484Z,96405.41
2022-09-27T01:01:49.753Z,96406.19
2022-09-27T01:04:22.919Z,96412.94
2022-09-27T01:06:51.716Z,96402.66
2022-09-27T01:09:21.155Z,96399.84
2022-09-27T01:11:58.819Z,96395.22
2022-09-27T01:14:36.080Z,96387.91
2022-09-27T01:17:19.254Z,96379.81
2022-09-27T01:19:47.443Z,96388.41
2022-09-27T01:22:22.855Z,96392.06
2022-09-27T01:25:23.465Z,96397.75
2022-09-27T01:28:06.280Z,96384.44
2022-09-27T01:30:39.639Z,96375.28
2022-09-27T01:33:23.493Z,96379.88
2022-09-27T01:35:52.237Z,96365.75
2022-09-27T01:39:00.105Z,96366.69
2022-09-27T01:42:01.785Z,96368.28
2022-09-27T01:44:39.609Z,96364.88
2022-09-27T01:47:18.269Z,96360.94
2022-09-27T01:50:17.391Z,96358.13
2022-09-27T01:52:54.975Z,96354.59
2022-09-27T01:55:27.690Z,96353.69
2022-09-27T01:58:29.961Z,96346.56
2022-09-27T02:00:58.761Z,96361.06
2022-09-27T02:03:36.636Z,96356.19
2022-09-27T02:06:46.524Z,96359.22
2022-09-27T02:09:31.047Z,96353.56
2022-09-27T02:12:25.067Z,96339.97
2022-09-27T02:15:04.936Z,96343.00
2022-09-27T02:18:34.342Z,96340.28
2022-09-27T02:21:04.982Z,96335.63
2022-09-27T02:24:03.264Z,96335.44
2022-09-27T02:26:35.024Z,96322.00
2022-09-27T02:29:16.004Z,96334.22
2022-09-27T02:31:50.607Z,96326.94
2022-09-27T02:34:23.971Z,96333.81
2022-09-27T02:36:53.797Z,96317.88
2022-09-27T02:39:22.579Z,96323.66
2022-09-27T02:42:00.321Z,96318.69
2022-09-27T02:44:28.634Z,96295.63
2022-09-27T02:47:05.830Z,96318.28
2022-09-27T02:49:40.053Z,96306.47
2022-09-27T02:52:49.345Z,96287.78
2022-09-27T02:55:21.029Z,96279.91
2022-09-27T02:58:05.466Z,96280.19
2022-09-27T03:00:50.451Z,96285.97
2022-09-27T03:04:09.651Z,96269.88
2022-09-27T03:06:40.021Z,96276.34
2022-09-27T03:09:23.910Z,96276.16
2022-09-27T03:11:52.663Z,96263.09
2022-09-27T03:14:21.104Z,96265.69
2022-09-27T03:17:02.142Z,96277.31
2022-09-27T03:19:56.430Z,96286.03
2022-09-27T03:22:47.601Z,96265.63
2022-09-27T03:25:16.257Z,96265.56
2022-09-27T03:27:44.895Z,96263.97
2022-09-27T03:30:13.573Z,96260.63
2022-09-27T03:32:45.743Z,96251.31
2022-09-27T03:35:32.529Z,96235.72
2022-09-27T03:38:01.691Z,96230.94
2022-09-27T03:40:30.156Z,96226.56
2022-09-27T03:42:58.475Z,96219.75
2022-09-27T03:45:27.315Z,96205.78
2022-09-27T03:47:58.428Z,96195.59
2022-09-27T03:50:26.865Z,96194.28
2022-09-27T03:52:55.294Z,96198.34
2022-09-27T03:55:24.931Z,96214.94
2022-09-27T03:57:53.819Z,96211.16
2022-09-27T04:00:22.558Z,96207.50
2022-09-27T04:02:50.888Z,96198.16
2022-09-27T04:05:29.005Z,96182.78
2022-09-27T04:08:14.095Z,96190.16
2022-09-27T04:10:43.542Z,96186.91
2022-09-27T04:13:12.252Z,96206.88
2022-09-27T04:15:52.225Z,96199.88
2022-09-27T04:18:39.752Z,96199.22
2022-09-27T04:21:28.571Z,96196.31
2022-09-27T04:23:57.494Z,96199.84
2022-09-27T04:26:26.169Z,96198.88
2022-09-27T04:29:04.927Z,96198.97
2022-09-27T04:31:38.875Z,96193.78
2022-09-27T04:34:50.904Z,96197.81
2022-09-27T04:37:24.383Z,96185.84
2022-09-27T04:40:01.992Z,96201.75
2022-09-27T04:42:31.875Z,96186.25
2022-09-27T04:45:00.897Z,96198.91
2022-09-27T04:47:29.107Z,96207.66
2022-09-27T04:49:58.331Z,96204.03
2022-09-27T04:52:27.054Z,96214.53
2022-09-27T04:54:55.471Z,96218.72
2022-09-27T04:57:23.989Z,96215.09
2022-09-27T04:59:52.530Z,96216.19
2022-09-27T05:02:21.612Z,96219.13
2022-09-27T05:05:09.045Z,96215.81
2022-09-27T05:07:40.779Z,96217.34
2022-09-27T05:10:15.437Z,96215.88
2022-09-27T05:12:43.926Z,96220.03
2022-09-27T05:15:16.471Z,96222.91
2022-09-27T05:18:19.909Z,96217.47
2022-09-27T05:21:11.198Z,96218.19
2022-09-27T05:23:46.045Z,96220.66
2022-09-27T05:26:16.781Z,96222.97
2022-09-27T05:28:47.573Z,96223.59
2022-09-27T05:31:17.264Z,96207.03
2022-09-27T05:33:45.967Z,96211.53
2022-09-27T05:36:35.619Z,96202.25
2022-09-27T05:39:04.446Z,96204.69
2022-09-27T05:41:33.285Z,96193.47
2022-09-27T05:44:02.154Z,96191.22
2022-09-27T05:46:30.926Z,96193.63
2022-09-27T05:49:00.211Z,96189.16
2022-09-27T05:51:28.618Z,96167.38
2022-09-27T05:53:57.141Z,96181.13
2022-09-27T05:56:29.826Z,96181.97
2022-09-27T05:59:17.199Z,96189.13
2022-09-27T06:02:05.618Z,96188.78
2022-09-27T06:04:57.066Z,96187.41
2022-09-27T06:07:44.261Z,96186.28
2022-09-27T06:10:20.458Z,96193.09
2022-09-27T06:12:50.525Z,96185.94
2022-09-27T06:15:37.815Z,96181.47
2022-09-27T06:18:11.845Z,96175.59
2022-09-27T06:20:43.413Z,96171.84
2022-09-27T06:23:19.205Z,96171.25
2022-09-27T06:25:50.068Z,96183.09
2022-09-27T06:28:24.178Z,96174.94
2022-09-27T06:30:56.976Z,96182.16
2022-09-27T06:33:40.929Z,96169.28
2022-09-27T06:36:09.473Z,96172.13
2022-09-27T06:38:40.071Z,96172.13
2022-09-27T06:41:21.633Z,96161.47
2022-09-27T06:44:13.490Z,96159.13
2022-09-27T06:47:10.841Z,96163.88
2022-09-27T06:49:54.630Z,96150.47
2022-09-27T06:52:23.097Z,96159.59
2022-09-27T06:54:51.516Z,96165.31
2022-09-27T06:57:42.003Z,96164.97
2022-09-27T07:00:27.153Z,96166.66
2022-09-27T07:03:23.476Z,96140.78
2022-09-27T07:06:23.108Z,96141.66
2022-09-27T07:08:58.482Z,96132.78
2022-09-27T07:11:26.866Z,96142.38
2022-09-27T07:13:56.787Z,96156.53
2022-09-27T07:16:25.222Z,96135.88
2022-09-27T07:18:53.476Z,96147.69
2022-09-27T07:21:21.762Z,96156.09
2022-09-27T07:23:50.932Z,96176.44
2022-09-27T07:26:19.427Z,96153.13
2022-09-27T07:28:48.802Z,96156.06
2022-09-27T07:31:19.412Z,96157.13
2022-09-27T07:33:47.787Z,96175.09
2022-09-27T07:36:16.135Z,96183.00
2022-09-27T07:38:47.198Z,96169.25
2022-09-27T07:41:18.561Z,96170.03
2022-09-27T07:43:46.959Z,96176.00
2022-09-27T07:46:16.406Z,96182.09
2022-09-27T07:48:52.649Z,96185.69
2022-09-27T07:51:39.778Z,96193.75
2022-09-27T07:54:30.216Z,96184.94
2022-09-27T07:57:07.557Z,96182.09
2022-09-27T07:59:46.268Z,96189.56
2022-09-27T08:02:18.339Z,96171.47
2022-09-27T08:04:50.291Z,96176.81
2022-09-27T08:07:19.131Z,96178.06
2022-09-27T08:09:51.751Z,96180.75
2022-09-27T08:12:21.886Z,96170.25
2022-09-27T08:14:50.833Z,96174.16
2022-09-27T08:17:19.819Z,96166.38
2022-09-27T08:20:16.885Z,96168.91
2022-09-27T08:23:10.987Z,96167.63
2022-09-27T08:25:44.576Z,96163.81
2022-09-27T08:28:35.641Z,96152.28
2022-09-27T08:31:15.314Z,96146.09
2022-09-27T08:33:43.934Z,96152.19
2022-09-27T08:36:13.164Z,96142.75
2022-09-27T08:38:42.280Z,96139.97
2022-09-27T08:41:35.008Z,96153.03
2022-09-27T08:44:21.076Z,96131.09
2022-09-27T08:47:30.018Z,96132.41
2022-09-27T08:50:22.817Z,96135.03
2022-09-27T08:52:54.554Z,96143.94
2022-09-27T08:55:37.239Z,96120.25
2022-09-27T08:58:30.786Z,96124.03
2022-09-27T09:01:03.658Z,96131.06
2022-09-27T09:03:40.397Z,96137.34
2022-09-27T09:06:12.155Z,96130.72
2022-09-27T09:09:10.082Z,96125.25
2022-09-27T09:12:22.210Z,96134.34
2022-09-27T09:15:07.599Z,96126.06
2022-09-27T09:18:14.011Z,96133.34
2022-09-27T09:21:17.505Z,96125.28
2022-09-27T09:24:17.041Z,96119.09
2022-09-27T09:27:02.962Z,96128.59
2022-09-27T09:29:58.823Z,96129.53
2022-09-27T09:32:37.163Z,96121.53
2022-09-27T09:35:20.663Z,96124.09
2022-09-27T09:37:51.641Z,96138.13
2022-09-27T09:40:39.442Z,96134.94
2022-09-27T09:43:13.286Z,96133.41
2022-09-27T09:45:46.713Z,96133.50
2022-09-27T09:48:25.167Z,96129.91
2022-09-27T09:50:55.334Z,96131.03
2022-09-27T09:53:42.025Z,96136.28
2022-09-27T09:56:19.070Z,96133.81
2022-09-27T09:59:33.847Z,96128.31
2022-09-27T10:02:29.260Z,96122.31
2022-09-27T10:05:07.617Z,96116.66
2022-09-27T10:07:39.743Z,96113.91
2022-09-27T10:10:10.488Z,96108.03
2022-09-27T10:12:58.076Z,96120.34
2022-09-27T10:15:32.112Z,96109.59
2022-09-27T10:18:00.925Z,96109.19
2022-09-27T10:20:37.548Z,96109.28
2022-09-27T10:23:21.591Z,96110.91
2022-09-27T10:26:06.567Z,96102.03
2022-09-27T10:28:51.300Z,96101.94
2022-09-27T10:31:26.804Z,96097.50
2022-09-27T10:34:27.737Z,96103.41
2022-09-27T10:37:08.356Z,96098.72
2022-09-27T10:39:41.804Z,96102.69
2022-09-27T10:42:34.152Z,96104.28
2022-09-27T10:45:34.785Z,96096.78
2022-09-27T10:48:24.107Z,96091.09
2022-09-27T10:51:02.107Z,96088.22
2022-09-27T10:53:45.516Z,96079.56
2022-09-27T10:56:25.365Z,96090.06
2022-09-27T10:58:58.029Z,96087.78
2022-09-27T11:01:28.753Z,96092.50
2022-09-27T11:04:34.149Z,96083.94
2022-09-27T11:07:17.438Z,96074.97
2022-09-27T11:10:03.325Z,96081.94
2022-09-27T11:12:37.011Z,96086.97
2022-09-27T11:15:07.694Z,96067.91
2022-09-27T11:18:02.721Z,96080.25
2022-09-27T11:20:42.927Z,96069.91
2022-09-27T11:23:36.662Z,96067.81
2022-09-27T11:26:25.993Z,96071.19
2022-09-27T11:29:27.454Z,96065.88
2022-09-27T11:32:38.511Z,96070.00
2022-09-27T11:35:51.514Z,96063.63
2022-09-27T11:38:52.708Z,96060.78
2022-09-27T11:41:56.126Z,96065.28
2022-09-27T11:45:13.378Z,96062.94
2022-09-27T11:47:57.314Z,96055.28
2022-09-27T11:50:54.843Z,96053.81
2022-09-27T11:53:44.352Z,96052.06
2022-09-27T11:56:35.912Z,96056.16
2022-09-27T11:59:49.482Z,96058.66
2022-09-27T12:02:41.238Z,96071.94
2022-09-27T12:05:45.001Z,96069.00
2022-09-27T12:08:35.026Z,96047.25
2022-09-27T12:11:27.572Z,96048.19
2022-09-27T12:14:25.824Z,96038.72
2022-09-27T12:16:57.932Z,96038.22
2022-09-27T12:19:33.193Z,96041.06
2022-09-27T12:22:07.201Z,96032.41
2022-09-27T12:24:44.989Z,96025.69
2022-09-27T12:28:30.368Z,96028.78
2022-09-27T12:31:27.572Z,96005.91
2022-09-27T12:34:19.918Z,96006.69
2022-09-27T12:37:17.571Z,95990.00
2022-09-27T12:40:29.544Z,95979.19
2022-09-27T12:43:18.258Z,95965.53
2022-09-27T12:46:09.276Z,95958.94
2022-09-27T12:49:00.575Z,95943.09
2022-09-27T12:52:03.554Z,95951.78
2022-09-27T12:54:50.185Z,95949.25
2022-09-27T12:57:48.065Z,95941.00
2022-09-27T13:00:32.905Z,95940.47
2022-09-27T13:03:27.654Z,95919.41
2022-09-27T13:06:13.797Z,95928.09
2022-09-27T13:08:49.700Z,95925.72
2022-09-27T13:11:34.145Z,95933.84
2022-09-27T13:14:02.845Z,95936.19
2022-09-27T13:16:31.733Z,95920.97
2022-09-27T13:19:03.707Z,95914.69
2022-09-27T13:21:48.411Z,95924.06
2022-09-27T13:24:51.023Z,95910.59
2022-09-27T13:27:40.071Z,95911.44
2022-09-27T13:30:11.567Z,95914.53
2022-09-27T13:33:17.268Z,95894.75
2022-09-27T13:36:17.195Z,95884.16
2022-09-27T13:39:11.858Z,95893.41
2022-09-27T13:42:27.501Z,95941.94
2022-09-27T13:45:43.198Z,96058.63
2022-09-27T13:48:38.806Z,96076.72
2022-09-27T14:00:10.680Z,96037.94
2022-09-27T14:03:24.404Z,96050.59
2022-09-27T14:05:59.740Z,96047.69
2022-09-27T14:08:32.665Z,96007.59
2022-09-27T14:11:04.920Z,96011.94
2022-09-27T14:13:34.412Z,96017.31
2022-09-27T14:16:07.901Z,96002.69
2022-09-27T14:18:44.974Z,95992.56
2022-09-27T14:21:21.735Z,96008.84
2022-09-27T14:24:34.584Z,96010.88
2022-09-27T14:27:24.503Z,96002.84
2022-09-27T14:30:04.025Z,96008.84
2022-09-27T14:32:48.786Z,96037.81
2022-09-27T14:35:45.235Z,96055.34
2022-09-27T14:38:50.281Z,96037.81
2022-09-27T14:41:37.628Z,96044.13
2022-09-27T14:44:16.438Z,96067.22
2022-09-27T14:46:54.232Z,96054.13
2022-09-27T14:49:26.833Z,96051.56
2022-09-27T14:53:19.867Z,96073.31
2022-09-27T14:55:56.325Z,96018.03
2022-09-27T14:58:46.093Z,96029.59
2022-09-27T15:01:18.948Z,96021.00
2022-09-27T15:03:49.984Z,96013.56
2022-09-27T15:06:22.685Z,96016.16
2022-09-27T15:08:51.742Z,96011.28
2022-09-27T15:11:22.285Z,96015.19
2022-09-27T15:13:53.822Z,96013.50
2022-09-27T15:16:25.940Z,96007.66
2022-09-27T15:19:17.696Z,96016.41
2022-09-27T15:21:48.976Z,96010.41
2022-09-27T15:24:41.509Z,95998.28
2022-09-27T15:27:15.898Z,96012.56
2022-09-27T15:29:55.155Z,96026.34
2022-09-27T15:32:24.889Z,96037.00
2022-09-27T15:34:54.940Z,96047.13
2022-09-27T15:37:39.441Z,96038.84
2022-09-27T15:40:34.278Z,96038.16
2022-09-27T15:43:02.860Z,96035.59
2022-09-27T15:45:38.808Z,96021.38
2022-09-27T15:48:28.512Z,96028.03
2022-09-27T15:50:58.776Z,96037.28
2022-09-27T15:53:35.992Z,96039.53
2022-09-27T15:56:06.839Z,96068.63
2022-09-27T15:58:35.228Z,96053.94
2022-09-27T16:01:05.859Z,96048.38
2022-09-27T16:03:35.736Z,96044.53
2022-09-27T16:06:05.011Z,96052.97
2022-09-27T16:08:34.787Z,96066.94
2022-09-27T16:11:06.077Z,96079.06
2022-09-27T16:13:34.466Z,96070.28
2022-09-27T16:16:03.592Z,96072.53
2022-09-27T16:18:33.287Z,96094.81
2022-09-27T16:21:02.578Z,96095.75
2022-09-27T16:23:31.046Z,96117.25
2022-09-27T16:25:59.493Z,96116.53
2022-09-27T16:28:36.265Z,96103.63
2022-09-27T16:31:11.059Z,96111.78
2022-09-27T16:33:45.973Z,96110.63
2022-09-27T16:36:23.790Z,96113.44
2022-09-27T16:39:01.347Z,96101.97
2022-09-27T16:41:40.393Z,96102.41
2022-09-27T16:44:12.113Z,96104.94
2022-09-27T16:46:49.617Z,96093.13
2022-09-27T16:49:43.069Z,96080.09
2022-09-27T16:52:36.407Z,96102.31
2022-09-27T16:55:09.537Z,96100.28
2022-09-27T16:57:43.445Z,96101.88
2022-09-27T17:00:16.325Z,96143.31
2022-09-27T17:02:50.025Z,96147.63
2022-09-27T17:05:31.873Z,96159.72
2022-09-27T17:08:02.894Z,96150.13
2022-09-27T17:10:39.826Z,96098.53
2022-09-27T17:13:14.553Z,96052.31
2022-09-27T17:15:59.201Z,96108.53
2022-09-27T17:18:45.252Z,96154.03
2022-09-27T17:21:24.023Z,96153.03
2022-09-27T17:24:11.190Z,96154.63
2022-09-27T17:26:46.625Z,96164.22
2022-09-27T17:29:29.664Z,96145.25
2022-09-27T17:32:13.650Z,96137.31
2022-09-27T17:34:54.494Z,96154.53
2022-09-27T17:37:52.152Z,96145.72
2022-09-27T17:40:23.839Z,96143.03
2022-09-27T17:42:55.858Z,96156.00
2022-09-27T17:45:29.819Z,96160.47
2022-09-27T17:48:23.812Z,96165.09
2022-09-27T17:51:09.957Z,96154.41
2022-09-27T17:53:45.181Z,96151.91
2022-09-27T17:59:02.897Z,96157.34
2022-09-27T18:01:46.645Z,96156.97
2022-09-27T18:04:22.252Z,96164.13
2022-09-27T18:06:53.392Z,96150.41
2022-09-27T18:09:25.512Z,96150.59
2022-09-27T18:11:55.695Z,96154.75
2022-09-27T18:14:28.985Z,96158.22
2022-09-27T18:17:08.422Z,96157.56
2022-09-27T18:19:43.480Z,96166.47
2022-09-27T18:22:16.398Z,96160.59
2022-09-27T18:24:48.984Z,96153.88
2022-09-27T18:27:20.410Z,96153.75
2022-09-27T18:29:49.595Z,96157.63
2022-09-27T18:35:03.457Z,96167.22
2022-09-27T18:37:32.886Z,96171.16
2022-09-27T18:40:04.997Z,96167.22
2022-09-27T18:42:34.815Z,96185.09
2022-09-27T18:45:04.327Z,96192.78
2022-09-27T18:47:35.634Z,96199.28
2022-09-27T18:50:05.293Z,96204.72
2022-09-27T18:52:38.404Z,96196.72
2022-09-27T18:55:24.605Z,96216.41
2022-09-27T18:57:58.401Z,96213.06
2022-09-27T19:00:33.004Z,96218.78
2022-09-27T19:03:02.412Z,96228.06
2022-09-27T19:05:31.564Z,96224.69
2022-09-27T19:08:00.462Z,96228.06
2022-09-27T19:10:30.230Z,96237.03
2022-09-27T19:12:59.253Z,96236.47
2022-09-27T19:15:28.242Z,96233.56
2022-09-27T19:17:59.082Z,96236.03
2022-09-27T19:20:28.902Z,96240.53
2022-09-27T19:22:59.508Z,96228.03
2022-09-27T19:25:28.298Z,96213.56
2022-09-27T19:27:56.619Z,96222.16
2022-09-27T19:30:24.980Z,96221.13
2022-09-27T19:32:56.339Z,96223.03
2022-09-27T19:35:24.881Z,96221.78
2022-09-27T19:37:56.303Z,96223.66
2022-09-27T19:40:25.021Z,96233.13
2022-09-27T19:42:57.553Z,96233.19
2022-09-27T19:45:27.113Z,96221.38
2022-09-27T19:48:00.437Z,96233.59
2022-09-27T19:50:31.008Z,96247.31
2022-09-27T19:53:02.237Z,96251.06
2022-09-27T19:55:31.446Z,96245.25
2022-09-27T19:58:02.159Z,96256.84
2022-09-27T20:00:34.314Z,96254.19
2022-09-27T20:03:05.536Z,96268.66
2022-09-27T20:05:35.454Z,96269.00
2022-09-27T20:08:06.064Z,96260.88
2022-09-27T20:10:37.314Z,96272.94
2022-09-27T20:13:09.234Z,96268.88
2022-09-27T20:15:39.435Z,96279.91
2022-09-27T20:18:10.285Z,96277.78
2022-09-27T20:20:42.664Z,96279.28
2022-09-27T20:23:14.594Z,96282.00
2022-09-27T20:25:45.170Z,96286.19
2022-09-27T20:28:14.874Z,96289.47
2022-09-27T20:30:56.951Z,96293.38
2022-09-27T20:33:44.053Z,96302.13
2022-09-27T20:36:15.007Z,96299.81
2022-09-27T20:38:47.228Z,96296.25
2022-09-27T20:41:18.508Z,96311.13
2022-09-27T20:43:47.178Z,96315.63
2022-09-27T20:46:17.062Z,96318.63
2022-09-27T20:48:46.802Z,96319.75
2022-09-27T20:51:15.293Z,96321.00
2022-09-27T20:53:45.074Z,96321.00
2022-09-27T20:56:18.481Z,96315.63
2022-09-27T20:58:51.076Z,96318.03
2022-09-27T21:01:20.602Z,96315.72
2022-09-27T21:03:54.000Z,96320.59
2022-09-27T21:06:25.413Z,96308.91
2022-09-27T21:08:55.420Z,96314.84
2022-09-27T21:11:23.592Z,96309.31
2022-09-27T21:13:52.154Z,96301.06
2022-09-27T21:16:22.201Z,96300.16
2022-09-27T21:18:51.919Z,96307.25
2022-09-27T21:21:21.262Z,96308.84
2022-09-27T21:23:54.307Z,96315.84
2022-09-27T21:26:23.331Z,96329.31
2022-09-27T21:28:53.307Z,96327.09
2022-09-27T21:31:23.487Z,96319.69
2022-09-27T21:33:58.898Z,96322.97
2022-09-27T21:36:31.419Z,96326.03
2022-09-27T21:39:00.020Z,96320.63
2022-09-27T21:41:29.222Z,96326.59
2022-09-27T21:43:57.925Z,96323.72
2022-09-27T21:46:28.574Z,96324.47
2022-09-27T21:48:58.690Z,96318.22
2022-09-27T21:51:30.433Z,96323.38
2022-09-27T21:54:01.053Z,96324.41
2022-09-27T21:56:33.909Z,96322.28
2022-09-27T21:59:02.498Z,96312.31
2022-09-27T22:01:32.289Z,96328.66
2022-09-27T22:04:01.306Z,96310.59
2022-09-27T22:06:34.221Z,96321.19
2022-09-27T22:09:03.450Z,96316.53
2022-09-27T22:11:33.290Z,96313.19
2022-09-27T22:14:01.637Z,96318.28
2022-09-27T22:16:32.695Z,96324.78
2022-09-27T22:19:02.158Z,96320.38
2022-09-27T22:21:32.039Z,96314.69
2022-09-27T22:24:07.790Z,96310.56
2022-09-27T22:26:38.164Z,96307.66
2022-09-27T22:29:06.891Z,96309.28
2022-09-27T22:31:35.586Z,96311.06
2022-09-27T22:34:06.633Z,96317.28
2022-09-27T22:36:35.287Z,96309.22
2022-09-27T22:39:03.806Z,96310.25
2022-09-27T22:41:32.343Z,96311.31
2022-09-27T22:44:01.467Z,96315.69
2022-09-27T22:46:29.696Z,96321.91
2022-09-27T22:48:58.051Z,96321.41
2022-09-27T22:51:26.370Z,96319.06
2022-09-27T22:53:54.657Z,96320.38
2022-09-27T22:56:22.925Z,96326.59
2022-09-27T22:58:51.305Z,96318.84
2022-09-27T23:01:23.835Z,96324.69
2022-09-27T23:03:54.739Z,96330.16
2022-09-27T23:06:23.246Z,96330.44
2022-09-27T23:08:51.902Z,96343.09
2022-09-27T23:11:22.224Z,96335.03
2022-09-27T23:13:50.992Z,96342.44
2022-09-27T23:16:20.955Z,96331.28
2022-09-27T23:18:49.983Z,96327.44
2022-09-27T23:21:19.335Z,96337.00
2022-09-27T23:23:47.695Z,96331.81
2022-09-27T23:26:16.478Z,96340.97
2022-09-27T23:28:44.921Z,96338.38
2022-09-27T23:31:14.824Z,96331.06
2022-09-27T23:33:48.719Z,96352.94
2022-09-27T23:36:21.269Z,96341.69
2022-09-27T23:38:50.593Z,96344.22
2022-09-27T23:41:19.002Z,96335.25
2022-09-27T23:43:48.501Z,96336.97
2022-09-27T23:46:17.151Z,96336.25
2022-09-27T23:48:45.487Z,96343.09
2022-09-27T23:51:13.731Z,96340.97
2022-09-27T23:53:42.195Z,96339.25
2022-09-27T23:56:15.374Z,96336.94
2022-09-27T23:58:44.693Z,96328.91
